Hlavní strana
METAR-TAF:

METAR-TAF

Letiště :

Pointe-Noire, Kongo

zeměpisná šířka: 04-49S, zeměpisná délka: 011-54E, výška: 17 m

Aktuální stav počasí

Zpráva byla vytvořena před 1 hodinou a 18 minutami, v 12:00 UTC
Jižní vítr 14 kt
Teplota 29°C
Vlhkost vzduchu 79%
Tlak 1012 hPa
Viditelnost 10 km a více
Polojasno ve výšce 1500 ft

METAR: FCPP 261200Z 19014KT 9999 SCT015 29/25 Q1012 NOSIG

Čas: 14:18 (13:18 UTC)

Předpověď počasí

Zpráva byla vytvořena před 2 hodinami a 18 minutami, v 11:00 UTC
Předpověď platná od 26 v 12 UTC do 27 v 12 UTC
Jižní vítr 6 kt
Viditelnost: 9000 m
Polojasno ve výšce 1200 ft
Oblačno až skoro zataženo ve výšce 2600 ft
Pravděpodobnost 30%
od 27 v 05 UTC do 27 v 08 UTC
Viditelnost: 3000 m
kouřmo

TAF: FCPP 261100Z 2612/2712 18006KT 9000 SCT012 BKN026 PROB30 2705/2708 3000 BR

Stav a předpovědi počasí z více než 4 000 letišť (zprávy METAR a TAF).

Červené a žluté tečky na mapě představují dostupné meteorologické stanice.

Když kurzor umístíte na tečku, zobrazí se název stanice.

Pak kliknutím zobrazíte stav a předpověď počasí.

Chcete-li změnit mapu, kliknutím na zelené tlačítko se znaménkem +mapu přiblížíte, kliknutím na zelené tlačítko se znaménkem – mapu oddálíte a kliknutím na zelené šipky přejdete na sousední mapy.


METAR-TAF: